To NAV CANADA Home Page Login to a new session Search on AWWS site Feedback and Comments Disclaimer Vers la page française équivalente Tips FAQ What's new on the site To the Forecasts and Observations / NOTAM section To "File a Flight Plan" website Publications and other links Update of the User's profile FIC Telephone Numbers My Weather Data Folder Route Weather Data Regional Weather Data Local Weather Data To the Forecasts and Observations / NOTAM section
Request Generated 04/18/2015 at 11:36:58 UTC . Weather information available at that time is displayed.

METAR/TAF

MONCTON/GREATER MONCTON INTL/NB    

METAR CYQM 181100Z 35010KT 15SM FEW040 03/M02 A2990 RMK SC1 SLP126=
METAR CYQM 181000Z 35005KT 15SM FEW040 FEW220 02/M02 A2988 RMK SC1CI1
CI TR SLP119=
METAR CYQM 180900Z 02004KT 330V030 15SM SCT053 SCT100 SCT260 02/M02
A2985 RMK SC3AC1CI1 CI TR SLP110=

TAF CYQM 180539Z 1806/1906 33008KT P6SM -SHRA BKN030 OVC060
FM180700 33012KT P6SM FEW060
BECMG 1813/1815 01012KT
FM190000 05008KT P6SM FEW010 BKN140 PROB30 1904/1906 5SM BR
BKN006
RMK NXT FCST BY 181200Z=
Your time UTC time
Weather data provided by Environment Canada and NAV CANADA